sensor_id;sensor_type;location;lat;lon;timestamp;P1;durP1;ratioP1;P2;durP2;ratioP2
27953;SDS011;15290;48.148;17.106;2022-12-07T00:00:41;12.43;;;8.30;;
27953;SDS011;15290;48.148;17.106;2022-12-07T00:03:07;11.05;;;8.20;;
27953;SDS011;15290;48.148;17.106;2022-12-07T00:05:33;12.45;;;8.32;;
27953;SDS011;15290;48.148;17.106;2022-12-07T00:07:58;11.30;;;8.00;;
27953;SDS011;15290;48.148;17.106;2022-12-07T00:10:24;11.70;;;8.43;;
27953;SDS011;15290;48.148;17.106;2022-12-07T00:12:50;12.68;;;9.25;;
27953;SDS011;15290;48.148;17.106;2022-12-07T00:15:15;12.43;;;8.77;;
27953;SDS011;15290;48.148;17.106;2022-12-07T00:17:41;13.63;;;9.60;;
27953;SDS011;15290;48.148;17.106;2022-12-07T00:20:07;11.30;;;8.85;;
27953;SDS011;15290;48.148;17.106;2022-12-07T00:22:32;12.50;;;9.18;;
27953;SDS011;15290;48.148;17.106;2022-12-07T00:24:58;12.27;;;8.73;;
27953;SDS011;15290;48.148;17.106;2022-12-07T00:27:24;12.48;;;8.43;;
27953;SDS011;15290;48.148;17.106;2022-12-07T00:29:49;12.05;;;8.38;;
27953;SDS011;15290;48.148;17.106;2022-12-07T00:32:15;11.50;;;8.80;;
27953;SDS011;15290;48.148;17.106;2022-12-07T00:34:41;9.35;;;7.68;;
27953;SDS011;15290;48.148;17.106;2022-12-07T00:37:06;11.38;;;8.75;;
27953;SDS011;15290;48.148;17.106;2022-12-07T00:39:33;11.55;;;9.00;;
27953;SDS011;15290;48.148;17.106;2022-12-07T00:41:59;11.63;;;8.85;;
27953;SDS011;15290;48.148;17.106;2022-12-07T00:44:25;10.88;;;8.52;;
27953;SDS011;15290;48.148;17.106;2022-12-07T00:46:52;12.80;;;9.18;;
27953;SDS011;15290;48.148;17.106;2022-12-07T00:49:18;13.23;;;8.75;;
27953;SDS011;15290;48.148;17.106;2022-12-07T00:51:43;12.65;;;9.25;;
27953;SDS011;15290;48.148;17.106;2022-12-07T00:54:09;11.13;;;8.65;;
27953;SDS011;15290;48.148;17.106;2022-12-07T00:56:35;11.38;;;8.70;;
27953;SDS011;15290;48.148;17.106;2022-12-07T00:59:01;12.48;;;9.18;;
27953;SDS011;15290;48.148;17.106;2022-12-07T01:01:29;11.75;;;8.73;;
27953;SDS011;15290;48.148;17.106;2022-12-07T01:04:00;11.15;;;8.25;;
27953;SDS011;15290;48.148;17.106;2022-12-07T01:06:26;11.80;;;8.57;;
27953;SDS011;15290;48.148;17.106;2022-12-07T01:08:54;10.90;;;8.48;;
27953;SDS011;15290;48.148;17.106;2022-12-07T01:11:23;11.18;;;8.68;;
27953;SDS011;15290;48.148;17.106;2022-12-07T01:13:53;11.48;;;8.38;;
27953;SDS011;15290;48.148;17.106;2022-12-07T01:16:22;11.52;;;8.23;;
27953;SDS011;15290;48.148;17.106;2022-12-07T01:18:50;11.73;;;8.23;;
27953;SDS011;15290;48.148;17.106;2022-12-07T01:21:24;10.18;;;7.90;;
27953;SDS011;15290;48.148;17.106;2022-12-07T01:23:52;10.30;;;7.80;;
27953;SDS011;15290;48.148;17.106;2022-12-07T01:26:19;11.23;;;8.70;;
27953;SDS011;15290;48.148;17.106;2022-12-07T01:28:47;14.30;;;8.23;;
27953;SDS011;15290;48.148;17.106;2022-12-07T01:31:14;10.80;;;8.43;;
27953;SDS011;15290;48.148;17.106;2022-12-07T01:33:42;11.23;;;8.70;;
27953;SDS011;15290;48.148;17.106;2022-12-07T01:36:16;10.38;;;8.35;;
27953;SDS011;15290;48.148;17.106;2022-12-07T01:38:53;11.23;;;8.98;;
27953;SDS011;15290;48.148;17.106;2022-12-07T01:41:21;12.32;;;9.13;;
27953;SDS011;15290;48.148;17.106;2022-12-07T01:46:36;13.50;;;9.10;;
27953;SDS011;15290;48.148;17.106;2022-12-07T01:49:02;13.32;;;9.57;;
27953;SDS011;15290;48.148;17.106;2022-12-07T01:51:35;11.98;;;9.38;;
27953;SDS011;15290;48.148;17.106;2022-12-07T01:54:03;14.07;;;9.75;;
27953;SDS011;15290;48.148;17.106;2022-12-07T01:56:29;13.55;;;9.55;;
27953;SDS011;15290;48.148;17.106;2022-12-07T01:58:57;13.60;;;9.90;;
27953;SDS011;15290;48.148;17.106;2022-12-07T02:01:25;17.23;;;11.38;;
27953;SDS011;15290;48.148;17.106;2022-12-07T02:03:51;13.77;;;10.60;;
27953;SDS011;15290;48.148;17.106;2022-12-07T02:06:19;14.27;;;10.98;;
27953;SDS011;15290;48.148;17.106;2022-12-07T02:08:49;14.73;;;11.40;;
27953;SDS011;15290;48.148;17.106;2022-12-07T02:11:16;16.25;;;11.75;;
27953;SDS011;15290;48.148;17.106;2022-12-07T02:13:42;15.55;;;11.25;;
27953;SDS011;15290;48.148;17.106;2022-12-07T02:18:48;18.00;;;12.38;;
27953;SDS011;15290;48.148;17.106;2022-12-07T02:29:38;17.13;;;12.68;;
27953;SDS011;15290;48.148;17.106;2022-12-07T02:32:20;17.83;;;12.65;;
27953;SDS011;15290;48.148;17.106;2022-12-07T02:34:55;15.93;;;12.05;;
27953;SDS011;15290;48.148;17.106;2022-12-07T02:40:11;19.02;;;12.30;;
27953;SDS011;15290;48.148;17.106;2022-12-07T02:42:50;17.27;;;12.60;;
27953;SDS011;15290;48.148;17.106;2022-12-07T02:45:24;20.13;;;13.73;;
27953;SDS011;15290;48.148;17.106;2022-12-07T02:47:53;18.23;;;13.05;;
27953;SDS011;15290;48.148;17.106;2022-12-07T02:50:23;18.65;;;13.30;;
27953;SDS011;15290;48.148;17.106;2022-12-07T02:52:49;18.30;;;13.32;;
27953;SDS011;15290;48.148;17.106;2022-12-07T02:55:15;18.15;;;12.73;;
27953;SDS011;15290;48.148;17.106;2022-12-07T02:57:54;18.25;;;13.38;;
27953;SDS011;15290;48.148;17.106;2022-12-07T03:00:25;19.08;;;13.63;;
27953;SDS011;15290;48.148;17.106;2022-12-07T03:10:45;20.08;;;14.20;;
27953;SDS011;15290;48.148;17.106;2022-12-07T03:13:30;18.83;;;14.20;;
27953;SDS011;15290;48.148;17.106;2022-12-07T03:18:37;18.95;;;13.82;;
27953;SDS011;15290;48.148;17.106;2022-12-07T03:21:09;19.48;;;13.65;;
27953;SDS011;15290;48.148;17.106;2022-12-07T03:23:41;18.67;;;14.00;;
27953;SDS011;15290;48.148;17.106;2022-12-07T03:26:09;19.30;;;13.88;;
27953;SDS011;15290;48.148;17.106;2022-12-07T03:28:40;17.50;;;12.95;;
27953;SDS011;15290;48.148;17.106;2022-12-07T03:31:21;19.23;;;14.07;;
27953;SDS011;15290;48.148;17.106;2022-12-07T03:33:53;18.08;;;13.70;;
27953;SDS011;15290;48.148;17.106;2022-12-07T03:37:29;18.25;;;13.63;;
27953;SDS011;15290;48.148;17.106;2022-12-07T03:39:45;19.08;;;14.27;;
27953;SDS011;15290;48.148;17.106;2022-12-07T03:42:23;19.17;;;14.23;;
27953;SDS011;15290;48.148;17.106;2022-12-07T03:44:49;19.58;;;14.73;;
27953;SDS011;15290;48.148;17.106;2022-12-07T03:47:17;22.42;;;15.98;;
27953;SDS011;15290;48.148;17.106;2022-12-07T03:49:59;19.42;;;14.82;;
27953;SDS011;15290;48.148;17.106;2022-12-07T03:52:41;20.83;;;15.93;;
27953;SDS011;15290;48.148;17.106;2022-12-07T03:55:15;21.25;;;15.38;;
27953;SDS011;15290;48.148;17.106;2022-12-07T03:57:48;23.85;;;16.17;;
27953;SDS011;15290;48.148;17.106;2022-12-07T04:00:17;21.75;;;15.90;;
27953;SDS011;15290;48.148;17.106;2022-12-07T04:02:43;23.40;;;16.60;;
27953;SDS011;15290;48.148;17.106;2022-12-07T04:05:09;22.33;;;16.00;;
27953;SDS011;15290;48.148;17.106;2022-12-07T04:07:36;21.27;;;16.15;;
27953;SDS011;15290;48.148;17.106;2022-12-07T04:10:02;22.17;;;16.83;;
27953;SDS011;15290;48.148;17.106;2022-12-07T04:12:29;23.00;;;16.13;;
27953;SDS011;15290;48.148;17.106;2022-12-07T04:14:54;20.45;;;15.90;;
27953;SDS011;15290;48.148;17.106;2022-12-07T04:17:20;20.45;;;14.82;;
27953;SDS011;15290;48.148;17.106;2022-12-07T04:19:46;22.50;;;16.00;;
27953;SDS011;15290;48.148;17.106;2022-12-07T04:22:11;23.58;;;16.17;;
27953;SDS011;15290;48.148;17.106;2022-12-07T04:24:37;22.08;;;15.32;;
27953;SDS011;15290;48.148;17.106;2022-12-07T04:27:04;22.80;;;16.52;;
27953;SDS011;15290;48.148;17.106;2022-12-07T04:29:29;22.10;;;16.05;;
27953;SDS011;15290;48.148;17.106;2022-12-07T04:31:58;22.45;;;15.15;;
27953;SDS011;15290;48.148;17.106;2022-12-07T04:34:24;22.23;;;15.98;;
27953;SDS011;15290;48.148;17.106;2022-12-07T04:36:49;23.52;;;16.60;;
27953;SDS011;15290;48.148;17.106;2022-12-07T04:39:23;22.75;;;16.15;;
27953;SDS011;15290;48.148;17.106;2022-12-07T04:41:57;23.42;;;16.42;;
27953;SDS011;15290;48.148;17.106;2022-12-07T04:44:24;22.17;;;16.48;;
27953;SDS011;15290;48.148;17.106;2022-12-07T04:46:50;24.17;;;16.05;;
27953;SDS011;15290;48.148;17.106;2022-12-07T04:49:17;20.70;;;15.65;;
27953;SDS011;15290;48.148;17.106;2022-12-07T04:51:44;20.48;;;15.20;;
27953;SDS011;15290;48.148;17.106;2022-12-07T04:54:10;20.55;;;15.88;;
27953;SDS011;15290;48.148;17.106;2022-12-07T04:56:36;21.55;;;16.02;;
27953;SDS011;15290;48.148;17.106;2022-12-07T04:59:02;21.80;;;15.85;;
27953;SDS011;15290;48.148;17.106;2022-12-07T05:01:29;22.67;;;16.30;;
27953;SDS011;15290;48.148;17.106;2022-12-07T05:03:55;22.20;;;16.15;;
27953;SDS011;15290;48.148;17.106;2022-12-07T05:06:20;21.20;;;15.65;;
27953;SDS011;15290;48.148;17.106;2022-12-07T05:08:49;21.17;;;15.63;;
27953;SDS011;15290;48.148;17.106;2022-12-07T05:11:15;22.70;;;16.45;;
27953;SDS011;15290;48.148;17.106;2022-12-07T05:14:00;19.40;;;14.88;;
27953;SDS011;15290;48.148;17.106;2022-12-07T05:16:27;20.58;;;16.08;;
27953;SDS011;15290;48.148;17.106;2022-12-07T05:18:52;20.58;;;15.68;;
27953;SDS011;15290;48.148;17.106;2022-12-07T05:21:18;22.38;;;16.30;;
27953;SDS011;15290;48.148;17.106;2022-12-07T05:23:44;22.33;;;15.88;;
27953;SDS011;15290;48.148;17.106;2022-12-07T05:26:09;21.77;;;15.88;;
27953;SDS011;15290;48.148;17.106;2022-12-07T05:28:35;22.02;;;16.63;;
27953;SDS011;15290;48.148;17.106;2022-12-07T05:31:02;23.55;;;16.95;;
27953;SDS011;15290;48.148;17.106;2022-12-07T05:33:28;22.42;;;16.52;;
27953;SDS011;15290;48.148;17.106;2022-12-07T05:35:53;22.40;;;16.50;;
27953;SDS011;15290;48.148;17.106;2022-12-07T05:38:19;22.63;;;17.33;;
27953;SDS011;15290;48.148;17.106;2022-12-07T05:40:45;22.80;;;16.40;;
27953;SDS011;15290;48.148;17.106;2022-12-07T05:43:10;29.65;;;22.42;;
27953;SDS011;15290;48.148;17.106;2022-12-07T05:45:36;25.73;;;20.13;;
27953;SDS011;15290;48.148;17.106;2022-12-07T05:48:02;25.52;;;17.67;;
27953;SDS011;15290;48.148;17.106;2022-12-07T05:50:29;22.83;;;17.20;;
27953;SDS011;15290;48.148;17.106;2022-12-07T05:52:54;21.92;;;15.88;;
27953;SDS011;15290;48.148;17.106;2022-12-07T05:55:20;24.95;;;18.83;;
27953;SDS011;15290;48.148;17.106;2022-12-07T05:57:46;31.85;;;23.08;;
27953;SDS011;15290;48.148;17.106;2022-12-07T06:00:30;27.67;;;20.48;;
27953;SDS011;15290;48.148;17.106;2022-12-07T06:02:56;33.85;;;29.67;;
27953;SDS011;15290;48.148;17.106;2022-12-07T06:05:23;26.40;;;17.70;;
27953;SDS011;15290;48.148;17.106;2022-12-07T06:07:49;21.75;;;17.27;;
27953;SDS011;15290;48.148;17.106;2022-12-07T06:10:15;23.05;;;18.40;;
27953;SDS011;15290;48.148;17.106;2022-12-07T06:12:40;19.70;;;14.43;;
27953;SDS011;15290;48.148;17.106;2022-12-07T06:15:08;20.27;;;13.95;;
27953;SDS011;15290;48.148;17.106;2022-12-07T06:17:38;24.13;;;15.55;;
27953;SDS011;15290;48.148;17.106;2022-12-07T06:20:04;18.63;;;13.45;;
27953;SDS011;15290;48.148;17.106;2022-12-07T06:22:32;18.13;;;12.85;;
27953;SDS011;15290;48.148;17.106;2022-12-07T06:24:58;18.77;;;12.85;;
27953;SDS011;15290;48.148;17.106;2022-12-07T06:27:24;17.60;;;12.93;;
27953;SDS011;15290;48.148;17.106;2022-12-07T06:29:49;16.77;;;12.02;;
27953;SDS011;15290;48.148;17.106;2022-12-07T06:32:15;18.27;;;12.65;;
27953;SDS011;15290;48.148;17.106;2022-12-07T06:34:41;22.63;;;13.35;;
27953;SDS011;15290;48.148;17.106;2022-12-07T06:37:07;17.75;;;12.80;;
27953;SDS011;15290;48.148;17.106;2022-12-07T06:39:32;19.27;;;13.35;;
27953;SDS011;15290;48.148;17.106;2022-12-07T06:41:58;21.77;;;16.05;;
27953;SDS011;15290;48.148;17.106;2022-12-07T06:44:24;21.67;;;15.23;;
27953;SDS011;15290;48.148;17.106;2022-12-07T06:46:50;19.52;;;13.70;;
27953;SDS011;15290;48.148;17.106;2022-12-07T06:49:18;17.92;;;13.80;;
27953;SDS011;15290;48.148;17.106;2022-12-07T06:51:43;18.52;;;14.13;;
27953;SDS011;15290;48.148;17.106;2022-12-07T06:54:10;19.40;;;12.02;;
27953;SDS011;15290;48.148;17.106;2022-12-07T06:56:37;17.15;;;12.05;;
27953;SDS011;15290;48.148;17.106;2022-12-07T06:59:03;20.38;;;14.45;;
27953;SDS011;15290;48.148;17.106;2022-12-07T07:01:30;17.38;;;12.15;;
27953;SDS011;15290;48.148;17.106;2022-12-07T07:03:56;16.95;;;11.73;;
27953;SDS011;15290;48.148;17.106;2022-12-07T07:06:21;19.85;;;13.85;;
27953;SDS011;15290;48.148;17.106;2022-12-07T07:08:47;19.92;;;13.73;;
27953;SDS011;15290;48.148;17.106;2022-12-07T07:11:13;20.02;;;12.30;;
27953;SDS011;15290;48.148;17.106;2022-12-07T07:13:39;20.33;;;15.18;;
27953;SDS011;15290;48.148;17.106;2022-12-07T07:16:05;19.73;;;13.60;;
27953;SDS011;15290;48.148;17.106;2022-12-07T07:18:33;17.27;;;12.38;;
27953;SDS011;15290;48.148;17.106;2022-12-07T07:21:00;18.13;;;11.98;;
27953;SDS011;15290;48.148;17.106;2022-12-07T07:23:26;18.13;;;12.43;;
27953;SDS011;15290;48.148;17.106;2022-12-07T07:25:51;16.77;;;11.63;;
27953;SDS011;15290;48.148;17.106;2022-12-07T07:28:17;16.38;;;11.93;;
27953;SDS011;15290;48.148;17.106;2022-12-07T07:30:43;16.10;;;11.40;;
27953;SDS011;15290;48.148;17.106;2022-12-07T07:33:09;15.32;;;10.70;;
27953;SDS011;15290;48.148;17.106;2022-12-07T07:35:35;14.68;;;10.60;;
27953;SDS011;15290;48.148;17.106;2022-12-07T07:38:01;18.65;;;12.48;;
27953;SDS011;15290;48.148;17.106;2022-12-07T07:40:28;16.80;;;12.05;;
27953;SDS011;15290;48.148;17.106;2022-12-07T07:42:54;19.15;;;12.20;;
27953;SDS011;15290;48.148;17.106;2022-12-07T07:45:21;18.35;;;12.65;;
27953;SDS011;15290;48.148;17.106;2022-12-07T07:47:48;19.80;;;12.65;;
27953;SDS011;15290;48.148;17.106;2022-12-07T07:50:14;17.52;;;12.38;;
27953;SDS011;15290;48.148;17.106;2022-12-07T07:52:41;17.38;;;11.50;;
27953;SDS011;15290;48.148;17.106;2022-12-07T07:55:06;24.13;;;12.35;;
27953;SDS011;15290;48.148;17.106;2022-12-07T07:57:34;18.02;;;12.40;;
27953;SDS011;15290;48.148;17.106;2022-12-07T08:00:05;20.50;;;12.30;;
27953;SDS011;15290;48.148;17.106;2022-12-07T08:02:33;23.23;;;11.85;;
27953;SDS011;15290;48.148;17.106;2022-12-07T08:04:59;16.45;;;11.25;;
27953;SDS011;15290;48.148;17.106;2022-12-07T08:07:25;22.27;;;11.77;;
27953;SDS011;15290;48.148;17.106;2022-12-07T08:09:52;20.58;;;11.95;;
27953;SDS011;15290;48.148;17.106;2022-12-07T08:12:21;17.70;;;12.20;;
27953;SDS011;15290;48.148;17.106;2022-12-07T08:14:47;16.00;;;12.15;;
27953;SDS011;15290;48.148;17.106;2022-12-07T08:17:14;15.93;;;11.55;;
27953;SDS011;15290;48.148;17.106;2022-12-07T08:19:39;18.70;;;12.13;;
27953;SDS011;15290;48.148;17.106;2022-12-07T08:22:06;17.63;;;11.93;;
27953;SDS011;15290;48.148;17.106;2022-12-07T08:24:35;18.23;;;11.90;;
27953;SDS011;15290;48.148;17.106;2022-12-07T08:27:01;21.20;;;12.25;;
27953;SDS011;15290;48.148;17.106;2022-12-07T08:29:27;19.45;;;12.63;;
27953;SDS011;15290;48.148;17.106;2022-12-07T08:31:53;19.02;;;12.80;;
27953;SDS011;15290;48.148;17.106;2022-12-07T08:34:19;16.90;;;12.77;;
27953;SDS011;15290;48.148;17.106;2022-12-07T08:36:44;16.80;;;11.55;;
27953;SDS011;15290;48.148;17.106;2022-12-07T08:39:12;20.60;;;12.27;;
27953;SDS011;15290;48.148;17.106;2022-12-07T08:41:38;16.75;;;11.25;;
27953;SDS011;15290;48.148;17.106;2022-12-07T08:44:05;30.73;;;15.25;;
27953;SDS011;15290;48.148;17.106;2022-12-07T08:46:37;18.30;;;12.57;;
27953;SDS011;15290;48.148;17.106;2022-12-07T08:51:58;18.52;;;12.23;;
27953;SDS011;15290;48.148;17.106;2022-12-07T08:54:24;20.98;;;12.77;;
27953;SDS011;15290;48.148;17.106;2022-12-07T08:56:50;18.50;;;12.27;;
27953;SDS011;15290;48.148;17.106;2022-12-07T08:59:19;20.52;;;12.38;;
27953;SDS011;15290;48.148;17.106;2022-12-07T09:01:45;15.55;;;12.05;;
27953;SDS011;15290;48.148;17.106;2022-12-07T09:04:11;19.10;;;12.73;;
27953;SDS011;15290;48.148;17.106;2022-12-07T09:06:40;20.55;;;12.45;;
27953;SDS011;15290;48.148;17.106;2022-12-07T09:09:08;18.98;;;13.10;;
27953;SDS011;15290;48.148;17.106;2022-12-07T09:11:36;21.05;;;13.02;;
27953;SDS011;15290;48.148;17.106;2022-12-07T09:14:01;23.73;;;13.45;;
27953;SDS011;15290;48.148;17.106;2022-12-07T09:16:27;21.70;;;13.18;;
27953;SDS011;15290;48.148;17.106;2022-12-07T09:18:55;17.02;;;11.02;;
27953;SDS011;15290;48.148;17.106;2022-12-07T09:21:20;14.30;;;10.45;;
27953;SDS011;15290;48.148;17.106;2022-12-07T09:23:46;17.70;;;10.20;;
27953;SDS011;15290;48.148;17.106;2022-12-07T09:26:12;19.33;;;10.52;;
27953;SDS011;15290;48.148;17.106;2022-12-07T09:28:38;15.43;;;10.25;;
27953;SDS011;15290;48.148;17.106;2022-12-07T09:31:04;15.55;;;9.73;;
27953;SDS011;15290;48.148;17.106;2022-12-07T09:33:30;15.32;;;9.52;;
27953;SDS011;15290;48.148;17.106;2022-12-07T09:35:56;16.13;;;9.73;;
27953;SDS011;15290;48.148;17.106;2022-12-07T09:38:21;15.57;;;9.15;;
27953;SDS011;15290;48.148;17.106;2022-12-07T09:40:48;15.52;;;8.57;;
27953;SDS011;15290;48.148;17.106;2022-12-07T09:43:14;14.82;;;9.48;;
27953;SDS011;15290;48.148;17.106;2022-12-07T09:45:45;12.52;;;8.90;;
27953;SDS011;15290;48.148;17.106;2022-12-07T09:48:22;16.05;;;8.55;;
27953;SDS011;15290;48.148;17.106;2022-12-07T09:50:55;13.10;;;9.00;;
27953;SDS011;15290;48.148;17.106;2022-12-07T09:53:36;13.07;;;9.23;;
27953;SDS011;15290;48.148;17.106;2022-12-07T09:56:03;15.65;;;8.98;;
27953;SDS011;15290;48.148;17.106;2022-12-07T09:58:29;16.80;;;10.05;;
27953;SDS011;15290;48.148;17.106;2022-12-07T10:01:05;12.52;;;9.13;;
27953;SDS011;15290;48.148;17.106;2022-12-07T10:06:20;13.27;;;9.35;;
27953;SDS011;15290;48.148;17.106;2022-12-07T10:08:48;18.25;;;9.23;;
27953;SDS011;15290;48.148;17.106;2022-12-07T10:11:13;19.67;;;12.85;;
27953;SDS011;15290;48.148;17.106;2022-12-07T10:13:48;14.30;;;7.68;;
27953;SDS011;15290;48.148;17.106;2022-12-07T10:24:39;5.75;;;4.05;;
27953;SDS011;15290;48.148;17.106;2022-12-07T10:27:17;4.18;;;3.55;;
27953;SDS011;15290;48.148;17.106;2022-12-07T10:29:49;6.53;;;4.07;;
27953;SDS011;15290;48.148;17.106;2022-12-07T10:34:41;4.78;;;3.97;;
27953;SDS011;15290;48.148;17.106;2022-12-07T10:44:42;4.25;;;3.85;;
27953;SDS011;15290;48.148;17.106;2022-12-07T10:47:25;4.95;;;3.88;;
27953;SDS011;15290;48.148;17.106;2022-12-07T10:55:56;7.32;;;4.75;;
27953;SDS011;15290;48.148;17.106;2022-12-07T11:01:34;7.65;;;4.15;;
27953;SDS011;15290;48.148;17.106;2022-12-07T11:04:35;5.18;;;3.92;;
27953;SDS011;15290;48.148;17.106;2022-12-07T11:19:34;5.40;;;4.07;;
27953;SDS011;15290;48.148;17.106;2022-12-07T11:22:09;8.88;;;4.25;;
27953;SDS011;15290;48.148;17.106;2022-12-07T11:30:54;3.55;;;3.25;;
27953;SDS011;15290;48.148;17.106;2022-12-07T11:36:17;4.00;;;3.60;;
27953;SDS011;15290;48.148;17.106;2022-12-07T11:42:22;4.53;;;3.78;;
27953;SDS011;15290;48.148;17.106;2022-12-07T11:45:12;4.72;;;3.40;;
27953;SDS011;15290;48.148;17.106;2022-12-07T11:47:47;4.13;;;3.70;;
27953;SDS011;15290;48.148;17.106;2022-12-07T11:53:34;5.55;;;3.20;;
27953;SDS011;15290;48.148;17.106;2022-12-07T11:58:51;4.70;;;3.63;;
27953;SDS011;15290;48.148;17.106;2022-12-07T12:01:53;4.43;;;3.45;;
27953;SDS011;15290;48.148;17.106;2022-12-07T12:04:30;4.15;;;3.55;;
27953;SDS011;15290;48.148;17.106;2022-12-07T12:07:10;5.93;;;3.33;;
27953;SDS011;15290;48.148;17.106;2022-12-07T12:10:04;4.28;;;3.22;;
27953;SDS011;15290;48.148;17.106;2022-12-07T12:23:41;5.53;;;4.25;;
27953;SDS011;15290;48.148;17.106;2022-12-07T12:26:22;4.13;;;3.70;;
27953;SDS011;15290;48.148;17.106;2022-12-07T12:28:52;4.65;;;3.60;;
27953;SDS011;15290;48.148;17.106;2022-12-07T12:33:56;9.57;;;3.53;;
27953;SDS011;15290;48.148;17.106;2022-12-07T12:44:46;8.88;;;4.10;;
27953;SDS011;15290;48.148;17.106;2022-12-07T12:47:02;4.07;;;3.67;;
27953;SDS011;15290;48.148;17.106;2022-12-07T12:49:42;4.70;;;3.70;;
27953;SDS011;15290;48.148;17.106;2022-12-07T12:55:17;10.73;;;4.75;;
27953;SDS011;15290;48.148;17.106;2022-12-07T12:57:47;6.35;;;4.50;;
27953;SDS011;15290;48.148;17.106;2022-12-07T13:00:32;5.03;;;4.03;;
27953;SDS011;15290;48.148;17.106;2022-12-07T13:02:59;6.05;;;3.60;;
27953;SDS011;15290;48.148;17.106;2022-12-07T13:05:25;4.90;;;2.83;;
27953;SDS011;15290;48.148;17.106;2022-12-07T13:08:01;2.67;;;2.38;;
27953;SDS011;15290;48.148;17.106;2022-12-07T13:10:40;2.72;;;2.50;;
27953;SDS011;15290;48.148;17.106;2022-12-07T13:15:40;2.80;;;2.53;;
27953;SDS011;15290;48.148;17.106;2022-12-07T13:26:19;3.15;;;2.85;;
27953;SDS011;15290;48.148;17.106;2022-12-07T13:28:47;3.55;;;3.05;;
27953;SDS011;15290;48.148;17.106;2022-12-07T13:31:14;5.45;;;3.38;;
27953;SDS011;15290;48.148;17.106;2022-12-07T13:33:45;3.75;;;3.30;;
27953;SDS011;15290;48.148;17.106;2022-12-07T13:36:17;8.52;;;3.70;;
27953;SDS011;15290;48.148;17.106;2022-12-07T13:38:56;8.15;;;3.70;;
27953;SDS011;15290;48.148;17.106;2022-12-07T13:41:25;7.03;;;3.38;;
27953;SDS011;15290;48.148;17.106;2022-12-07T13:44:00;5.25;;;4.05;;
27953;SDS011;15290;48.148;17.106;2022-12-07T13:46:44;7.90;;;3.85;;
27953;SDS011;15290;48.148;17.106;2022-12-07T13:51:49;8.93;;;3.60;;
27953;SDS011;15290;48.148;17.106;2022-12-07T13:54:15;5.65;;;3.38;;
27953;SDS011;15290;48.148;17.106;2022-12-07T13:56:42;8.05;;;4.10;;
27953;SDS011;15290;48.148;17.106;2022-12-07T13:59:10;8.27;;;4.30;;
27953;SDS011;15290;48.148;17.106;2022-12-07T14:01:41;4.90;;;3.80;;
27953;SDS011;15290;48.148;17.106;2022-12-07T14:04:25;5.95;;;4.20;;
27953;SDS011;15290;48.148;17.106;2022-12-07T14:07:00;6.90;;;3.60;;
27953;SDS011;15290;48.148;17.106;2022-12-07T14:09:53;4.00;;;3.55;;
27953;SDS011;15290;48.148;17.106;2022-12-07T14:12:26;5.10;;;4.15;;
27953;SDS011;15290;48.148;17.106;2022-12-07T14:14:53;5.70;;;3.70;;
27953;SDS011;15290;48.148;17.106;2022-12-07T14:17:21;4.55;;;3.80;;
27953;SDS011;15290;48.148;17.106;2022-12-07T14:19:58;5.82;;;3.42;;
27953;SDS011;15290;48.148;17.106;2022-12-07T14:24:51;5.70;;;3.85;;
27953;SDS011;15290;48.148;17.106;2022-12-07T14:27:24;6.70;;;4.20;;
27953;SDS011;15290;48.148;17.106;2022-12-07T14:29:58;7.35;;;3.97;;
27953;SDS011;15290;48.148;17.106;2022-12-07T14:32:27;7.95;;;4.20;;
27953;SDS011;15290;48.148;17.106;2022-12-07T14:37:27;4.57;;;3.80;;
27953;SDS011;15290;48.148;17.106;2022-12-07T14:39:53;6.43;;;4.28;;
27953;SDS011;15290;48.148;17.106;2022-12-07T14:42:19;8.93;;;3.72;;
27953;SDS011;15290;48.148;17.106;2022-12-07T14:44:46;5.53;;;3.80;;
27953;SDS011;15290;48.148;17.106;2022-12-07T14:47:12;9.10;;;3.85;;
27953;SDS011;15290;48.148;17.106;2022-12-07T14:49:38;5.78;;;3.53;;
27953;SDS011;15290;48.148;17.106;2022-12-07T14:52:04;7.57;;;3.97;;
27953;SDS011;15290;48.148;17.106;2022-12-07T14:54:34;7.95;;;4.15;;
27953;SDS011;15290;48.148;17.106;2022-12-07T14:57:01;5.00;;;3.80;;
27953;SDS011;15290;48.148;17.106;2022-12-07T14:59:27;6.13;;;5.18;;
27953;SDS011;15290;48.148;17.106;2022-12-07T15:01:52;8.27;;;4.80;;
27953;SDS011;15290;48.148;17.106;2022-12-07T15:04:18;9.18;;;5.00;;
27953;SDS011;15290;48.148;17.106;2022-12-07T15:06:54;7.65;;;5.30;;
27953;SDS011;15290;48.148;17.106;2022-12-07T15:09:21;5.85;;;4.55;;
27953;SDS011;15290;48.148;17.106;2022-12-07T15:11:47;11.85;;;5.95;;
27953;SDS011;15290;48.148;17.106;2022-12-07T15:14:12;7.18;;;5.10;;
27953;SDS011;15290;48.148;17.106;2022-12-07T15:16:40;10.50;;;4.70;;
27953;SDS011;15290;48.148;17.106;2022-12-07T15:19:14;6.85;;;5.38;;
27953;SDS011;15290;48.148;17.106;2022-12-07T15:21:41;8.45;;;5.63;;
27953;SDS011;15290;48.148;17.106;2022-12-07T15:24:08;8.50;;;5.00;;
27953;SDS011;15290;48.148;17.106;2022-12-07T15:26:38;13.65;;;5.60;;
27953;SDS011;15290;48.148;17.106;2022-12-07T15:29:05;7.60;;;5.82;;
27953;SDS011;15290;48.148;17.106;2022-12-07T15:31:31;10.02;;;5.57;;
27953;SDS011;15290;48.148;17.106;2022-12-07T15:33:58;11.63;;;6.28;;
27953;SDS011;15290;48.148;17.106;2022-12-07T15:36:25;8.40;;;5.55;;
27953;SDS011;15290;48.148;17.106;2022-12-07T15:38:52;12.07;;;7.78;;
27953;SDS011;15290;48.148;17.106;2022-12-07T15:41:19;9.60;;;6.10;;
27953;SDS011;15290;48.148;17.106;2022-12-07T15:43:45;12.05;;;6.20;;
27953;SDS011;15290;48.148;17.106;2022-12-07T15:46:38;9.75;;;6.30;;
27953;SDS011;15290;48.148;17.106;2022-12-07T15:49:23;10.32;;;6.97;;
27953;SDS011;15290;48.148;17.106;2022-12-07T15:51:49;11.98;;;7.22;;
27953;SDS011;15290;48.148;17.106;2022-12-07T15:54:16;8.63;;;6.18;;
27953;SDS011;15290;48.148;17.106;2022-12-07T15:56:47;8.52;;;5.82;;
27953;SDS011;15290;48.148;17.106;2022-12-07T15:59:15;8.75;;;6.47;;
27953;SDS011;15290;48.148;17.106;2022-12-07T16:01:41;12.82;;;8.15;;
27953;SDS011;15290;48.148;17.106;2022-12-07T16:04:08;9.40;;;6.55;;
27953;SDS011;15290;48.148;17.106;2022-12-07T16:06:34;9.98;;;6.18;;
27953;SDS011;15290;48.148;17.106;2022-12-07T16:08:59;10.05;;;5.70;;
27953;SDS011;15290;48.148;17.106;2022-12-07T16:11:25;10.68;;;5.88;;
27953;SDS011;15290;48.148;17.106;2022-12-07T16:13:51;10.25;;;6.32;;
27953;SDS011;15290;48.148;17.106;2022-12-07T16:16:18;9.02;;;6.35;;
27953;SDS011;15290;48.148;17.106;2022-12-07T16:18:44;12.60;;;7.10;;
27953;SDS011;15290;48.148;17.106;2022-12-07T16:21:11;7.90;;;6.07;;
27953;SDS011;15290;48.148;17.106;2022-12-07T16:23:38;9.10;;;6.10;;
27953;SDS011;15290;48.148;17.106;2022-12-07T16:26:06;9.18;;;6.05;;
27953;SDS011;15290;48.148;17.106;2022-12-07T16:28:37;10.23;;;6.35;;
27953;SDS011;15290;48.148;17.106;2022-12-07T16:31:04;11.32;;;6.45;;
27953;SDS011;15290;48.148;17.106;2022-12-07T16:33:32;9.98;;;6.45;;
27953;SDS011;15290;48.148;17.106;2022-12-07T16:35:59;8.60;;;6.15;;
27953;SDS011;15290;48.148;17.106;2022-12-07T16:38:26;11.23;;;6.60;;
27953;SDS011;15290;48.148;17.106;2022-12-07T16:40:52;9.55;;;6.32;;
27953;SDS011;15290;48.148;17.106;2022-12-07T16:43:18;8.90;;;6.80;;